To NAV CANADA Home Page Login to a new session Search on AWWS site Feedback and Comments Disclaimer Vers la page française équivalente Tips FAQ What's new on the site To the Forecasts and Observations / NOTAM section To "File a Flight Plan" website Publications and other links Update of the User's profile FIC Telephone Numbers My Weather Data Folder Route Weather Data Regional Weather Data Local Weather Data To the Forecasts and Observations / NOTAM section
Request Generated 03/31/2015 at 23:50:59 UTC . Weather information available at that time is displayed.

METAR/TAF

GREENWOOD/NS    

METAR CYZX 312300Z 27010KT 15SM SCT035 BKN077 03/M01 A2963 RMK SC3AC4 WNDY HILL 28010KT SLP033=
METAR CYZX 312200Z 27012KT 15SM BKN060 03/M01 A2960 RMK SC7 WNDY HILL 29012G18KT SLP023=
SPECI CYZX 312128Z 26013G21KT 15SM BKN059 03/M01 A2959 RMK SC7 WNDY HILL 29013G18KT SLP020=
METAR CYZX 312100Z 27014KT 15SM -SHRA BKN064 03/M01 A2957 RMK SC7 WNDY HILL 28011G19KT SLP016=

TAF CYZX 312330Z 0100/0124 27010KT P6SM SCT030 BKN070
BECMG 0101/0103 30005KT FEW030 SCT070
FM011500 31008KT P6SM FEW030
BECMG 0117/0119 31010G20KT
RMK NXT FCST BY 010600Z=
Your time UTC time
Weather data provided by Environment Canada and NAV CANADA